createdAt,value
2022-08-09T00:00:12.008Z,3.22
2022-08-09T00:02:42.991Z,2.72
2022-08-09T00:06:17.892Z,1.77
2022-08-09T00:08:13.041Z,3.15
2022-08-09T00:10:59.229Z,1.33
2022-08-09T00:13:26.132Z,1.88
2022-08-09T00:15:59.554Z,2.72
2022-08-09T00:18:31.469Z,1.40
2022-08-09T00:21:04.602Z,2.03
2022-08-09T00:23:55.684Z,2.90
2022-08-09T00:26:18.822Z,2.58
2022-08-09T00:28:52.425Z,3.90
2022-08-09T00:31:56.930Z,1.90
2022-08-09T00:34:10.884Z,1.77
2022-08-09T00:36:38.395Z,1.35
2022-08-09T00:39:17.086Z,1.20
2022-08-09T00:44:11.745Z,1.60
2022-08-09T00:44:43.070Z,1.98
2022-08-09T00:47:15.372Z,1.60
2022-08-09T00:49:43.862Z,2.17
2022-08-09T00:52:28.197Z,1.27
2022-08-09T00:55:00.172Z,1.50
2022-08-09T00:57:34.595Z,1.83
2022-08-09T01:00:21.758Z,1.45
2022-08-09T01:03:14.609Z,1.25
2022-08-09T01:05:54.180Z,2.35
2022-08-09T01:08:32.087Z,2.28
2022-08-09T01:11:04.696Z,3.08
2022-08-09T01:13:59.494Z,3.05
2022-08-09T01:16:47.326Z,0.93
2022-08-09T01:19:42.701Z,1.85
2022-08-09T01:22:27.810Z,1.67
2022-08-09T01:24:55.132Z,1.50
2022-08-09T01:27:24.890Z,1.75
2022-08-09T01:30:05.552Z,2.30
2022-08-09T01:32:45.340Z,1.13
2022-08-09T01:35:37.273Z,0.98
2022-08-09T01:38:14.846Z,1.15
2022-08-09T01:40:52.818Z,3.42
2022-08-09T01:43:32.284Z,1.20
2022-08-09T01:46:26.961Z,1.33
2022-08-09T01:49:00.000Z,1.67
2022-08-09T01:51:32.161Z,0.98
2022-08-09T01:54:04.088Z,2.38
2022-08-09T01:56:33.529Z,1.23
2022-08-09T01:59:06.418Z,1.42
2022-08-09T02:01:59.405Z,1.33
2022-08-09T02:04:25.196Z,1.08
2022-08-09T02:07:15.329Z,0.70
2022-08-09T02:09:59.396Z,1.08
2022-08-09T02:12:30.789Z,1.95
2022-08-09T02:15:00.418Z,1.35
2022-08-09T02:17:59.959Z,1.10
2022-08-09T02:20:25.339Z,1.30
2022-08-09T02:23:10.347Z,2.25
2022-08-09T02:25:42.201Z,1.67
2022-08-09T02:28:19.606Z,3.13
2022-08-09T02:30:54.297Z,1.10
2022-08-09T02:33:58.312Z,1.27
2022-08-09T02:36:18.377Z,3.40
2022-08-09T02:38:54.911Z,2.30
2022-08-09T02:41:30.855Z,1.17
2022-08-09T02:44:10.515Z,1.00
2022-08-09T02:49:19.702Z,1.10
2022-08-09T02:51:57.796Z,2.28
2022-08-09T02:54:28.603Z,1.63
2022-08-09T02:57:13.959Z,2.08
2022-08-09T03:00:11.239Z,1.88
2022-08-09T03:02:46.475Z,1.70
2022-08-09T03:05:28.800Z,1.30
2022-08-09T03:07:56.993Z,1.05
2022-08-09T03:10:26.487Z,2.20
2022-08-09T03:12:55.100Z,2.80
2022-08-09T03:15:23.697Z,1.45
2022-08-09T03:17:58.025Z,3.22
2022-08-09T03:20:29.421Z,1.63
2022-08-09T03:23:05.577Z,2.22
2022-08-09T03:25:59.237Z,1.70
2022-08-09T03:28:31.233Z,1.00
2022-08-09T03:31:04.401Z,5.20
2022-08-09T03:33:53.347Z,2.50
2022-08-09T03:36:21.670Z,2.17
2022-08-09T03:38:54.890Z,1.83
2022-08-09T03:41:29.984Z,2.45
2022-08-09T03:44:10.240Z,3.58
2022-08-09T03:46:39.267Z,2.80
2022-08-09T03:49:08.268Z,2.20
2022-08-09T03:51:56.613Z,1.20
2022-08-09T03:54:31.484Z,3.08
2022-08-09T03:57:04.440Z,2.85
2022-08-09T03:59:52.853Z,1.77
2022-08-09T04:02:27.015Z,2.15
2022-08-09T04:04:58.719Z,1.48
2022-08-09T04:07:47.630Z,2.55
2022-08-09T04:10:13.555Z,0.93
2022-08-09T04:12:47.968Z,2.05
2022-08-09T04:15:52.224Z,1.17
2022-08-09T04:18:06.447Z,1.38
2022-08-09T04:20:33.857Z,3.20
2022-08-09T04:23:01.975Z,2.72
2022-08-09T04:25:29.375Z,1.63
2022-08-09T04:28:02.362Z,1.25
2022-08-09T04:30:31.899Z,1.80
2022-08-09T04:33:00.333Z,2.67
2022-08-09T04:35:29.435Z,2.92
2022-08-09T04:37:59.886Z,13.75
2022-08-09T04:40:48.459Z,14.25
2022-08-09T04:43:23.144Z,5.57
2022-08-09T04:45:54.030Z,13.00
2022-08-09T04:48:21.784Z,4.35
2022-08-09T04:50:50.873Z,6.15
2022-08-09T04:53:17.805Z,4.75
2022-08-09T04:55:59.152Z,6.38
2022-08-09T04:58:28.031Z,4.63
2022-08-09T05:00:57.510Z,6.10
2022-08-09T05:03:40.995Z,4.88
2022-08-09T05:06:22.102Z,4.65
2022-08-09T05:09:00.451Z,3.67
2022-08-09T05:11:32.481Z,5.22
2022-08-09T05:14:05.889Z,6.57
2022-08-09T05:19:10.669Z,5.43
2022-08-09T05:21:47.091Z,4.43
2022-08-09T05:24:19.241Z,7.10
2022-08-09T05:26:47.641Z,8.07
2022-08-09T05:29:23.974Z,4.38
2022-08-09T05:31:57.602Z,6.10
2022-08-09T05:34:30.678Z,4.63
2022-08-09T05:37:06.089Z,4.30
2022-08-09T05:39:42.423Z,13.48
2022-08-09T05:42:20.579Z,7.68
2022-08-09T05:44:51.347Z,9.65
2022-08-09T05:47:21.525Z,3.70
2022-08-09T05:50:35.024Z,7.13
2022-08-09T05:52:38.424Z,3.10
2022-08-09T05:55:07.308Z,5.07
2022-08-09T05:57:50.750Z,6.63
2022-08-09T06:00:23.694Z,3.15
2022-08-09T06:02:54.080Z,4.43
2022-08-09T06:08:09.248Z,4.53
2022-08-09T06:10:38.845Z,2.88
2022-08-09T06:13:12.429Z,8.10
2022-08-09T06:15:46.840Z,4.43
2022-08-09T06:18:15.721Z,15.02
2022-08-09T06:20:43.035Z,7.47
2022-08-09T06:23:16.965Z,6.78
2022-08-09T06:25:43.851Z,4.60
2022-08-09T06:28:10.816Z,6.78
2022-08-09T06:30:43.374Z,3.08
2022-08-09T06:33:30.603Z,5.60
2022-08-09T06:35:58.378Z,6.30
2022-08-09T06:38:32.190Z,19.20
2022-08-09T06:41:09.377Z,11.75
2022-08-09T06:43:46.842Z,8.10
2022-08-09T06:46:39.705Z,9.23
2022-08-09T06:49:02.375Z,9.00
2022-08-09T06:51:29.266Z,5.00
2022-08-09T06:54:00.888Z,5.65
2022-08-09T06:56:30.976Z,2.10
2022-08-09T07:00:49.063Z,3.05
2022-08-09T07:01:53.694Z,4.15
2022-08-09T07:04:24.571Z,4.57
2022-08-09T07:06:53.533Z,3.38
2022-08-09T07:09:55.305Z,2.80
2022-08-09T07:12:17.957Z,3.88
2022-08-09T07:14:50.670Z,2.75
2022-08-09T07:17:19.328Z,4.35
2022-08-09T07:19:48.261Z,3.67
2022-08-09T07:22:18.562Z,3.03
2022-08-09T07:24:55.048Z,2.85
2022-08-09T07:27:27.283Z,3.80
2022-08-09T07:30:03.038Z,3.08
2022-08-09T07:32:33.567Z,3.15
2022-08-09T07:35:07.974Z,3.10
2022-08-09T07:37:43.604Z,1.40
2022-08-09T07:40:18.681Z,5.25
2022-08-09T07:43:03.779Z,2.58
2022-08-09T07:45:41.887Z,2.72
2022-08-09T07:48:29.530Z,1.50
2022-08-09T07:51:09.207Z,3.40
2022-08-09T07:54:06.274Z,2.70
2022-08-09T07:56:36.037Z,4.95
2022-08-09T07:59:14.223Z,3.10
2022-08-09T08:01:53.237Z,2.83
2022-08-09T08:04:20.475Z,3.65
2022-08-09T08:07:00.253Z,4.43
2022-08-09T08:09:45.172Z,4.57
2022-08-09T08:12:37.165Z,3.35
2022-08-09T08:15:07.489Z,3.25
2022-08-09T08:17:53.064Z,2.80
2022-08-09T08:20:29.477Z,3.08
2022-08-09T08:23:06.940Z,2.50
2022-08-09T08:25:46.405Z,1.40
2022-08-09T08:28:15.502Z,2.88
2022-08-09T08:30:47.495Z,3.28
2022-08-09T08:33:23.088Z,2.08
2022-08-09T08:35:59.298Z,1.85
2022-08-09T08:38:31.108Z,1.35
2022-08-09T08:40:59.611Z,2.58
2022-08-09T08:43:28.077Z,2.22
2022-08-09T08:46:10.143Z,2.85
2022-08-09T08:48:51.909Z,2.40
2022-08-09T08:51:22.608Z,3.33
2022-08-09T08:54:03.095Z,2.50
2022-08-09T08:56:37.832Z,1.45
2022-08-09T08:59:19.832Z,1.10
2022-08-09T09:01:53.306Z,1.65
2022-08-09T09:04:41.312Z,1.60
2022-08-09T09:07:16.209Z,2.33
2022-08-09T09:10:02.069Z,2.20
2022-08-09T09:12:34.408Z,2.90
2022-08-09T09:15:05.782Z,1.83
2022-08-09T09:17:46.410Z,1.60
2022-08-09T09:20:17.395Z,1.67
2022-08-09T09:22:53.472Z,2.65
2022-08-09T09:26:01.354Z,1.63
2022-08-09T09:29:02.520Z,1.48
2022-08-09T09:32:06.012Z,2.90
2022-08-09T09:34:18.094Z,1.48
2022-08-09T09:36:52.788Z,1.23
2022-08-09T09:39:54.541Z,1.80
2022-08-09T09:42:24.856Z,2.42
2022-08-09T09:44:59.815Z,1.65
2022-08-09T09:47:29.308Z,1.52
2022-08-09T09:50:14.779Z,0.93
2022-08-09T09:52:53.705Z,1.35
2022-08-09T09:55:32.573Z,0.85
2022-08-09T09:58:17.106Z,2.10
2022-08-09T10:00:59.635Z,2.28
2022-08-09T10:06:13.072Z,2.50
2022-08-09T10:08:55.059Z,1.23
2022-08-09T10:11:59.545Z,3.28
2022-08-09T10:14:30.772Z,3.22
2022-08-09T10:17:38.715Z,1.55
2022-08-09T10:19:58.905Z,1.80
2022-08-09T10:22:35.733Z,1.63
2022-08-09T10:25:11.994Z,1.17
2022-08-09T10:27:57.114Z,1.30
2022-08-09T10:32:13.695Z,3.03
2022-08-09T10:34:05.192Z,2.08
2022-08-09T10:36:09.675Z,2.13
2022-08-09T10:38:56.224Z,1.58
2022-08-09T10:41:27.760Z,1.55
2022-08-09T10:44:00.877Z,2.13
2022-08-09T10:46:55.679Z,3.40
2022-08-09T10:49:51.523Z,1.20
2022-08-09T10:52:53.652Z,4.40
2022-08-09T10:55:26.420Z,3.00
2022-08-09T10:57:58.658Z,1.55
2022-08-09T11:00:33.274Z,1.40
2022-08-09T11:03:14.819Z,2.10
2022-08-09T11:06:15.427Z,1.48
2022-08-09T11:08:47.742Z,1.13
2022-08-09T11:11:17.306Z,1.90
2022-08-09T11:13:51.217Z,2.17
2022-08-09T11:16:37.393Z,1.40
2022-08-09T11:19:07.841Z,1.83
2022-08-09T11:22:10.173Z,1.85
2022-08-09T11:25:17.611Z,1.10
2022-08-09T11:28:08.332Z,1.40
2022-08-09T11:30:39.899Z,1.38
2022-08-09T11:33:18.094Z,2.40
2022-08-09T11:35:50.271Z,1.58
2022-08-09T11:38:32.308Z,3.30
2022-08-09T11:41:13.850Z,1.83
2022-08-09T11:43:49.153Z,1.35
2022-08-09T11:46:26.864Z,1.67
2022-08-09T11:49:05.342Z,3.13
2022-08-09T11:53:15.315Z,2.53
2022-08-09T11:55:34.862Z,2.88
2022-08-09T11:58:15.208Z,1.42
2022-08-09T12:00:49.896Z,2.22
2022-08-09T12:03:54.986Z,0.98
2022-08-09T12:06:18.136Z,1.13
2022-08-09T12:08:56.200Z,2.05
2022-08-09T12:11:27.226Z,1.75
2022-08-09T12:14:28.538Z,4.30
2022-08-09T12:16:56.388Z,1.17
2022-08-09T12:19:30.771Z,1.67
2022-08-09T12:22:05.018Z,2.08
2022-08-09T12:24:32.647Z,2.13
2022-08-09T12:29:14.243Z,1.10
2022-08-09T12:30:02.019Z,0.98
2022-08-09T12:32:44.181Z,0.80
2022-08-09T12:35:13.382Z,2.30
2022-08-09T12:37:51.839Z,1.02
2022-08-09T12:40:23.249Z,1.75
2022-08-09T12:42:52.758Z,1.77
2022-08-09T12:45:34.786Z,2.47
2022-08-09T12:48:20.277Z,2.00
2022-08-09T12:50:56.023Z,1.90
2022-08-09T12:53:37.220Z,2.00
2022-08-09T12:56:13.815Z,0.70
2022-08-09T12:59:08.646Z,1.02
2022-08-09T13:01:46.931Z,1.05
2022-08-09T13:04:37.098Z,1.67
2022-08-09T13:07:20.034Z,2.00
2022-08-09T13:10:05.158Z,1.58
2022-08-09T13:12:39.949Z,3.03
2022-08-09T13:15:20.562Z,1.45
2022-08-09T13:18:05.434Z,1.02
2022-08-09T13:20:37.372Z,1.80
2022-08-09T13:24:15.221Z,0.98
2022-08-09T13:26:39.963Z,3.08
2022-08-09T13:29:13.411Z,3.90
2022-08-09T13:32:14.069Z,1.08
2022-08-09T13:34:48.867Z,1.33
2022-08-09T13:37:24.641Z,1.35
2022-08-09T13:41:52.004Z,2.72
2022-08-09T13:42:56.243Z,2.08
2022-08-09T13:45:32.641Z,1.63
2022-08-09T13:48:11.088Z,2.42
2022-08-09T13:50:38.483Z,2.15
2022-08-09T13:53:07.287Z,4.80
2022-08-09T13:55:34.882Z,0.88
2022-08-09T13:58:07.956Z,1.50
2022-08-09T14:00:50.005Z,0.80
2022-08-09T14:06:19.362Z,1.00
2022-08-09T14:08:53.509Z,2.10
2022-08-09T14:11:20.782Z,1.20
2022-08-09T14:14:23.568Z,2.78
2022-08-09T14:16:37.985Z,1.00
2022-08-09T14:19:07.682Z,0.80
2022-08-09T14:21:34.568Z,2.30
2022-08-09T14:24:10.002Z,1.55
2022-08-09T14:26:46.930Z,1.13
2022-08-09T14:30:04.160Z,2.40
2022-08-09T14:32:11.305Z,1.80
2022-08-09T14:34:41.237Z,1.13
2022-08-09T14:37:09.050Z,0.73
2022-08-09T14:39:40.407Z,1.38
2022-08-09T14:42:30.135Z,1.20
2022-08-09T14:46:40.436Z,2.55
2022-08-09T14:47:57.371Z,0.75
2022-08-09T14:50:32.308Z,1.63
2022-08-09T14:53:01.974Z,0.90
2022-08-09T14:55:32.069Z,1.88
2022-08-09T14:58:00.383Z,1.20
2022-08-09T15:00:30.350Z,0.95
2022-08-09T15:02:58.367Z,1.02
2022-08-09T15:05:27.328Z,0.80
2022-08-09T15:07:58.299Z,2.05
2022-08-09T15:10:31.490Z,1.33
2022-08-09T15:13:02.984Z,2.10
2022-08-09T15:15:34.450Z,1.33
2022-08-09T15:18:06.654Z,3.55
2022-08-09T15:21:56.529Z,1.33
2022-08-09T15:24:05.764Z,2.47
2022-08-09T15:26:18.766Z,2.30
2022-08-09T15:28:55.518Z,2.13
2022-08-09T15:31:28.669Z,1.15
2022-08-09T15:34:33.579Z,0.68
2022-08-09T15:36:58.383Z,1.92
2022-08-09T15:39:25.701Z,2.90
2022-08-09T15:42:02.729Z,3.65
2022-08-09T15:44:32.630Z,8.80
2022-08-09T15:49:28.587Z,3.50
2022-08-09T15:52:04.726Z,6.10
2022-08-09T15:54:46.175Z,5.03
2022-08-09T15:57:34.027Z,5.65
2022-08-09T16:00:04.054Z,6.60
2022-08-09T16:02:31.377Z,1.98
2022-08-09T16:04:58.337Z,3.80
2022-08-09T16:07:29.663Z,3.38
2022-08-09T16:10:16.983Z,3.72
2022-08-09T16:12:55.883Z,4.07
2022-08-09T16:16:04.561Z,2.70
2022-08-09T16:18:12.576Z,7.95
2022-08-09T16:20:41.594Z,2.28
2022-08-09T16:23:11.713Z,3.83
2022-08-09T16:25:40.515Z,4.38
2022-08-09T16:28:08.089Z,2.47
2022-08-09T16:30:40.922Z,5.43
2022-08-09T16:33:12.090Z,8.48
2022-08-09T16:35:57.242Z,4.22
2022-08-09T16:38:27.024Z,1.30
2022-08-09T16:40:53.991Z,4.63
2022-08-09T16:43:22.630Z,4.40
2022-08-09T16:45:53.656Z,6.47
2022-08-09T16:48:40.997Z,1.90
2022-08-09T16:51:13.850Z,5.85
2022-08-09T16:54:18.034Z,2.38
2022-08-09T16:56:35.179Z,2.75
2022-08-09T16:59:06.750Z,4.93
2022-08-09T17:01:38.715Z,5.55
2022-08-09T17:04:06.666Z,4.50
2022-08-09T17:08:41.584Z,4.53
2022-08-09T17:09:44.988Z,2.28
2022-08-09T17:12:08.991Z,5.10
2022-08-09T17:14:36.258Z,3.67
2022-08-09T17:17:25.856Z,2.60
2022-08-09T17:20:29.093Z,1.92
2022-08-09T17:22:52.110Z,3.08
2022-08-09T17:25:20.463Z,3.05
2022-08-09T17:27:54.360Z,2.97
2022-08-09T17:30:25.769Z,4.18
2022-08-09T17:32:53.456Z,4.20
2022-08-09T17:35:20.531Z,4.45
2022-08-09T17:38:11.943Z,4.22
2022-08-09T17:40:35.558Z,5.38
2022-08-09T17:43:32.210Z,5.68
2022-08-09T17:46:02.664Z,4.47
2022-08-09T17:48:39.783Z,8.90
2022-08-09T17:51:18.113Z,2.83
2022-08-09T17:53:51.679Z,2.97
2022-08-09T17:56:35.209Z,4.40
2022-08-09T17:59:11.517Z,3.20
2022-08-09T18:01:58.056Z,12.70
2022-08-09T18:04:27.206Z,7.00
2022-08-09T18:06:55.646Z,9.57
2022-08-09T18:09:40.282Z,22.65
2022-08-09T18:12:17.637Z,12.57
2022-08-09T18:14:54.103Z,13.55
2022-08-09T18:17:27.472Z,13.60
2022-08-09T18:20:59.790Z,7.55
2022-08-09T18:22:57.361Z,17.23
2022-08-09T18:25:51.181Z,9.15
2022-08-09T18:28:21.398Z,10.88
2022-08-09T18:31:01.100Z,20.30
2022-08-09T18:33:28.413Z,16.75
2022-08-09T18:35:59.265Z,18.45
2022-08-09T18:38:30.383Z,12.18
2022-08-09T18:40:59.281Z,11.32
2022-08-09T18:43:26.407Z,12.02
2022-08-09T18:46:50.074Z,5.88
2022-08-09T18:48:42.298Z,4.20
2022-08-09T18:51:09.888Z,7.15
2022-08-09T18:54:00.596Z,5.22
2022-08-09T18:56:28.183Z,2.50
2022-08-09T18:58:57.373Z,2.17
2022-08-09T19:01:25.894Z,1.52
2022-08-09T19:04:06.196Z,9.90
2022-08-09T19:06:38.548Z,6.15
2022-08-09T19:09:07.437Z,6.57
2022-08-09T19:11:37.738Z,5.18
2022-08-09T19:16:35.909Z,2.28
2022-08-09T19:19:21.241Z,6.00
2022-08-09T19:22:05.052Z,9.45
2022-08-09T19:25:08.839Z,8.13
2022-08-09T19:27:23.106Z,3.42
2022-08-09T19:30:23.167Z,2.00
2022-08-09T19:32:37.710Z,7.95
2022-08-09T19:35:05.840Z,6.68
2022-08-09T19:37:54.014Z,5.30
2022-08-09T19:40:21.901Z,2.50
2022-08-09T19:42:49.925Z,2.50
2022-08-09T19:45:18.672Z,16.77
2022-08-09T19:47:47.979Z,3.73
2022-08-09T19:50:51.511Z,7.25
2022-08-09T19:53:04.691Z,14.93
2022-08-09T19:56:02.765Z,2.83
2022-08-09T19:58:30.088Z,7.72
2022-08-09T20:00:58.782Z,4.10
2022-08-09T20:04:09.786Z,3.90
2022-08-09T20:06:23.336Z,8.45
2022-08-09T20:08:56.584Z,16.30
2022-08-09T20:11:26.583Z,8.45
2022-08-09T20:13:55.065Z,2.85
2022-08-09T20:16:36.898Z,6.80
2022-08-09T20:19:47.423Z,9.57
2022-08-09T20:22:00.157Z,16.80
2022-08-09T20:24:33.924Z,6.82
2022-08-09T20:27:08.419Z,12.40
2022-08-09T20:29:39.745Z,11.02
2022-08-09T20:34:56.015Z,17.67
2022-08-09T20:37:24.098Z,5.25
2022-08-09T20:40:15.232Z,5.55
2022-08-09T20:42:39.177Z,6.85
2022-08-09T20:47:59.026Z,13.98
2022-08-09T20:50:47.271Z,23.17
2022-08-09T20:53:18.799Z,9.27
2022-08-09T20:56:02.836Z,4.75
2022-08-09T20:58:32.360Z,18.73
2022-08-09T21:01:32.275Z,13.25
2022-08-09T21:05:49.398Z,20.92
2022-08-09T21:06:42.695Z,8.35
2022-08-09T21:09:14.300Z,6.07
2022-08-09T21:14:34.775Z,7.28
2022-08-09T21:18:11.090Z,7.68
2022-08-09T21:20:19.008Z,8.30
2022-08-09T21:22:46.863Z,8.02
2022-08-09T21:25:39.304Z,6.10
2022-08-09T21:28:15.811Z,6.22
2022-08-09T21:30:43.581Z,7.47
2022-08-09T21:33:10.647Z,5.68
2022-08-09T21:35:40.554Z,6.13
2022-08-09T21:38:11.590Z,3.63
2022-08-09T21:40:39.550Z,6.18
2022-08-09T21:43:09.512Z,3.25
2022-08-09T21:45:39.315Z,6.63
2022-08-09T21:48:09.779Z,6.10
2022-08-09T21:50:46.702Z,7.15
2022-08-09T21:53:39.859Z,5.22
2022-08-09T21:56:07.186Z,5.57
2022-08-09T21:58:54.135Z,12.90
2022-08-09T22:01:26.029Z,31.58
2022-08-09T22:04:08.296Z,13.68
2022-08-09T22:06:35.229Z,12.32
2022-08-09T22:09:02.145Z,5.00
2022-08-09T22:12:09.052Z,9.55
2022-08-09T22:14:16.408Z,7.35
2022-08-09T22:16:44.455Z,6.97
2022-08-09T22:19:53.381Z,7.40
2022-08-09T22:21:58.382Z,4.43
2022-08-09T22:24:25.300Z,6.57
2022-08-09T22:26:53.172Z,6.93
2022-08-09T22:29:28.907Z,6.20
2022-08-09T22:32:01.976Z,4.72
2022-08-09T22:34:29.533Z,7.05
2022-08-09T22:36:58.454Z,6.88
2022-08-09T22:39:58.161Z,2.42
2022-08-09T22:42:21.131Z,4.70
2022-08-09T22:45:00.021Z,5.28
2022-08-09T22:48:33.874Z,4.72
2022-08-09T22:50:25.884Z,4.63
2022-08-09T22:52:54.856Z,2.95
2022-08-09T22:55:39.597Z,2.58
2022-08-09T22:58:20.377Z,1.98
2022-08-09T23:00:58.367Z,1.88
2022-08-09T23:04:02.649Z,2.70
2022-08-09T23:06:14.269Z,3.53
2022-08-09T23:08:44.614Z,1.52
2022-08-09T23:11:15.867Z,1.40
2022-08-09T23:13:46.990Z,4.03
2022-08-09T23:16:16.528Z,2.67
2022-08-09T23:18:45.380Z,2.38
2022-08-09T23:21:14.875Z,2.63
2022-08-09T23:24:05.482Z,1.60
2022-08-09T23:26:34.426Z,1.45
2022-08-09T23:29:01.393Z,0.80
2022-08-09T23:31:28.335Z,2.80
2022-08-09T23:33:55.191Z,1.40
2022-08-09T23:36:22.114Z,2.75
2022-08-09T23:38:49.603Z,2.65
2022-08-09T23:41:29.071Z,0.68
2022-08-09T23:43:58.406Z,1.50
2022-08-09T23:46:25.625Z,1.15
2022-08-09T23:48:52.444Z,1.98
2022-08-09T23:51:19.429Z,2.25
2022-08-09T23:53:46.327Z,1.65
2022-08-09T23:56:16.617Z,3.20
2022-08-09T23:58:48.695Z,1.20
